createdAt,value
2023-04-27T00:02:28.259Z,99787.41
2023-04-27T00:04:57.309Z,99780.00
2023-04-27T00:07:26.708Z,99788.66
2023-04-27T00:09:55.029Z,99774.00
2023-04-27T00:12:23.331Z,99792.88
2023-04-27T00:14:53.032Z,99788.78
2023-04-27T00:17:21.563Z,99788.34
2023-04-27T00:19:49.836Z,99804.66
2023-04-27T00:22:18.205Z,99789.38
2023-04-27T00:24:46.535Z,99789.53
2023-04-27T00:27:14.846Z,99788.41
2023-04-27T00:29:43.235Z,99793.31
2023-04-27T00:32:13.248Z,99796.25
2023-04-27T00:34:41.553Z,99796.25
2023-04-27T00:37:10.155Z,99801.84
2023-04-27T00:39:38.571Z,99802.09
2023-04-27T00:42:11.418Z,99799.91
2023-04-27T00:44:39.998Z,99798.47
2023-04-27T00:47:08.667Z,99806.78
2023-04-27T00:49:38.908Z,99819.47
2023-04-27T00:52:07.861Z,99816.81
2023-04-27T00:54:36.369Z,99823.72
2023-04-27T00:57:05.336Z,99818.84
2023-04-27T00:59:33.691Z,99833.91
2023-04-27T01:02:02.844Z,99812.22
2023-04-27T01:04:32.491Z,99842.28
2023-04-27T01:07:03.291Z,99831.44
2023-04-27T01:09:31.713Z,99810.25
2023-04-27T01:12:00.115Z,99799.22
2023-04-27T01:14:28.359Z,99807.53
2023-04-27T01:16:56.665Z,99812.94
2023-04-27T01:19:25.196Z,99802.25
2023-04-27T01:21:53.533Z,99796.13
2023-04-27T01:24:23.233Z,99793.28
2023-04-27T01:26:53.991Z,99805.06
2023-04-27T01:29:22.669Z,99793.22
2023-04-27T01:31:51.116Z,99800.44
2023-04-27T01:34:19.372Z,99796.38
2023-04-27T01:36:47.645Z,99791.81
2023-04-27T01:39:16.489Z,99793.63
2023-04-27T01:41:46.415Z,99790.50
2023-04-27T01:44:14.622Z,99794.25
2023-04-27T01:46:42.978Z,99788.41
2023-04-27T01:49:11.504Z,99797.81
2023-04-27T01:51:40.023Z,99795.34
2023-04-27T01:54:08.337Z,99799.69
2023-04-27T01:56:36.545Z,99822.34
2023-04-27T01:59:06.245Z,99792.53
2023-04-27T02:01:34.636Z,99790.16
2023-04-27T02:04:03.191Z,99780.88
2023-04-27T02:06:31.598Z,99802.81
2023-04-27T02:08:59.981Z,99787.91
2023-04-27T02:11:28.292Z,99781.09
2023-04-27T02:13:56.573Z,99772.00
2023-04-27T02:16:27.271Z,99806.78
2023-04-27T02:18:55.513Z,99806.28
2023-04-27T02:21:23.776Z,99816.06
2023-04-27T02:23:52.058Z,99811.13
2023-04-27T02:26:21.156Z,99813.03
2023-04-27T02:28:50.280Z,99821.63
2023-04-27T02:31:19.136Z,99828.50
2023-04-27T02:33:48.919Z,99834.66
2023-04-27T02:36:17.308Z,99811.44
2023-04-27T02:38:45.604Z,99815.47
2023-04-27T02:41:13.984Z,99823.28
2023-04-27T02:43:42.222Z,99851.25
2023-04-27T02:46:12.044Z,99813.31
2023-04-27T02:48:40.334Z,99853.03
2023-04-27T02:51:10.047Z,99847.59
2023-04-27T02:53:38.281Z,99847.28
2023-04-27T02:56:07.040Z,99835.63
2023-04-27T02:58:35.319Z,99836.41
2023-04-27T03:01:04.039Z,99846.28
2023-04-27T03:03:32.431Z,99847.19
2023-04-27T03:06:00.953Z,99835.44
2023-04-27T03:08:30.597Z,99862.00
2023-04-27T03:10:58.828Z,99855.59
2023-04-27T03:13:28.135Z,99846.59
2023-04-27T03:15:56.421Z,99850.84
2023-04-27T03:18:24.843Z,99844.41
2023-04-27T03:20:53.142Z,99841.75
2023-04-27T03:23:21.389Z,99862.28
2023-04-27T03:25:51.210Z,99855.59
2023-04-27T03:28:19.453Z,99860.63
2023-04-27T03:30:47.654Z,99833.84
2023-04-27T03:33:15.878Z,99874.72
2023-04-27T03:35:44.169Z,99840.00
2023-04-27T03:38:12.373Z,99831.28
2023-04-27T03:40:40.576Z,99848.75
2023-04-27T03:43:10.418Z,99868.63
2023-04-27T03:45:38.694Z,99857.47
2023-04-27T03:48:07.765Z,99860.72
2023-04-27T03:50:36.068Z,99861.50
2023-04-27T03:53:04.553Z,99860.19
2023-04-27T03:55:32.808Z,99885.41
2023-04-27T03:58:01.095Z,99874.19
2023-04-27T04:00:31.619Z,99882.84
2023-04-27T04:02:59.910Z,99902.53
2023-04-27T04:05:28.502Z,99903.47
2023-04-27T04:07:56.951Z,99881.53
2023-04-27T04:10:25.719Z,99913.44
2023-04-27T04:12:54.276Z,99900.47
2023-04-27T04:15:22.450Z,99909.81
2023-04-27T04:17:52.598Z,99919.22
2023-04-27T04:20:21.069Z,99895.09
2023-04-27T04:22:49.333Z,99910.88
2023-04-27T04:25:18.058Z,99907.84
2023-04-27T04:27:46.340Z,99904.06
2023-04-27T04:30:15.235Z,99898.50
2023-04-27T04:32:45.133Z,99909.06
2023-04-27T04:35:16.295Z,99917.03
2023-04-27T04:37:44.648Z,99955.81
2023-04-27T04:40:14.129Z,99924.81
2023-04-27T04:42:42.600Z,99914.00
2023-04-27T04:45:11.762Z,99921.09
2023-04-27T04:47:40.673Z,99913.66
2023-04-27T04:50:10.722Z,99957.78
2023-04-27T04:52:40.594Z,99942.75
2023-04-27T04:55:09.304Z,99937.09
2023-04-27T04:57:37.695Z,99950.47
2023-04-27T05:00:11.613Z,99929.38
2023-04-27T05:02:40.203Z,99927.63
2023-04-27T05:05:09.299Z,99928.75
2023-04-27T05:07:37.731Z,99926.53
2023-04-27T05:10:08.233Z,99963.63
2023-04-27T05:12:36.543Z,99930.47
2023-04-27T05:15:05.076Z,99931.56
2023-04-27T05:17:33.480Z,99932.09
2023-04-27T05:20:01.905Z,99920.06
2023-04-27T05:22:30.183Z,99922.31
2023-04-27T05:24:59.233Z,99937.50
2023-04-27T05:27:30.210Z,99956.91
2023-04-27T05:29:58.528Z,99984.63
2023-04-27T05:32:26.961Z,99981.97
2023-04-27T05:34:55.262Z,99976.38
2023-04-27T05:37:23.679Z,99972.88
2023-04-27T05:39:52.744Z,99977.44
2023-04-27T05:42:21.046Z,99969.00
2023-04-27T05:44:50.667Z,99970.09
2023-04-27T05:47:18.876Z,100019.63
2023-04-27T05:49:52.816Z,99998.94
2023-04-27T05:52:21.321Z,100003.34
2023-04-27T05:54:50.026Z,100006.28
2023-04-27T05:57:18.380Z,100008.97
2023-04-27T05:59:46.720Z,100010.81
2023-04-27T06:02:16.757Z,100024.88
2023-04-27T06:04:45.319Z,100012.69
2023-04-27T06:07:16.179Z,100019.94
2023-04-27T06:09:44.714Z,100042.00
2023-04-27T06:12:13.041Z,100022.66
2023-04-27T06:14:41.485Z,100038.44
2023-04-27T06:17:09.768Z,100034.56
2023-04-27T06:19:39.501Z,100048.13
2023-04-27T06:22:07.818Z,100048.94
2023-04-27T06:24:36.646Z,100070.19
2023-04-27T06:27:05.139Z,100055.88
2023-04-27T06:29:33.546Z,100082.53
2023-04-27T06:32:01.987Z,100079.88
2023-04-27T06:34:30.546Z,100069.63
2023-04-27T06:37:00.173Z,100082.91
2023-04-27T06:39:28.585Z,100093.38
2023-04-27T06:41:57.048Z,100093.19
2023-04-27T06:44:25.368Z,100076.28
2023-04-27T06:46:53.883Z,100093.22
2023-04-27T06:49:22.328Z,100072.44
2023-04-27T06:51:50.859Z,100093.81
2023-04-27T06:54:20.868Z,100080.72
2023-04-27T06:56:49.113Z,100083.97
2023-04-27T06:59:17.565Z,100077.25
2023-04-27T07:01:46.536Z,100088.13
2023-04-27T07:04:15.012Z,100101.53
2023-04-27T07:06:43.592Z,100099.50
2023-04-27T07:09:24.040Z,100097.97
2023-04-27T07:11:57.437Z,100096.22
2023-04-27T07:14:26.214Z,100097.78
2023-04-27T07:16:54.739Z,100089.59
2023-04-27T07:19:22.989Z,100084.41
2023-04-27T07:21:51.999Z,100096.88
2023-04-27T07:24:20.441Z,100123.50
2023-04-27T07:26:49.334Z,100100.03
2023-04-27T07:29:26.325Z,100097.00
2023-04-27T07:31:55.803Z,100098.09
2023-04-27T07:34:25.133Z,100095.09
2023-04-27T07:36:54.563Z,100108.38
2023-04-27T07:39:23.651Z,100097.66
2023-04-27T07:41:51.869Z,100099.03
2023-04-27T07:44:22.029Z,100092.72
2023-04-27T07:46:50.257Z,100097.19
2023-04-27T07:49:18.576Z,100087.56
2023-04-27T07:51:47.044Z,100079.97
2023-04-27T07:54:15.480Z,100081.16
2023-04-27T07:56:44.281Z,100087.03
2023-04-27T07:59:13.034Z,100085.22
2023-04-27T08:01:45.768Z,100077.22
2023-04-27T08:04:14.416Z,100066.31
2023-04-27T08:06:47.044Z,100069.81
2023-04-27T08:09:16.011Z,100086.84
2023-04-27T08:11:44.565Z,100073.88
2023-04-27T08:14:13.797Z,100060.22
2023-04-27T08:16:44.762Z,100051.53
2023-04-27T08:19:13.222Z,100060.13
2023-04-27T08:21:41.683Z,100061.69
2023-04-27T08:24:09.934Z,100075.91
2023-04-27T08:26:38.373Z,100043.69
2023-04-27T08:29:19.553Z,100034.06
2023-04-27T08:31:57.120Z,100072.09
2023-04-27T08:34:25.690Z,100039.84
2023-04-27T08:36:54.171Z,100039.13
2023-04-27T08:39:22.967Z,100037.03
2023-04-27T08:41:51.764Z,100047.84
2023-04-27T08:44:20.137Z,100031.66
2023-04-27T08:46:48.943Z,100040.06
2023-04-27T08:49:18.949Z,100046.91
2023-04-27T08:51:47.464Z,100051.69
2023-04-27T08:54:15.692Z,100041.78
2023-04-27T08:56:44.154Z,100047.63
2023-04-27T08:59:16.879Z,100044.34
2023-04-27T09:01:47.100Z,100054.09
2023-04-27T09:04:16.765Z,100089.94
2023-04-27T09:06:46.890Z,100055.19
2023-04-27T09:09:23.792Z,100060.06
2023-04-27T09:11:52.470Z,100082.81
2023-04-27T09:14:22.401Z,100093.94
2023-04-27T09:16:57.818Z,100087.88
2023-04-27T09:19:27.630Z,100091.81
2023-04-27T09:22:07.448Z,100095.81
2023-04-27T09:24:35.878Z,100099.59
2023-04-27T09:27:05.093Z,100083.06
2023-04-27T09:29:38.984Z,100091.81
2023-04-27T09:32:17.919Z,100091.63
2023-04-27T09:34:46.765Z,100080.56
2023-04-27T09:37:16.902Z,100103.59
2023-04-27T09:39:45.395Z,100113.47
2023-04-27T09:42:14.265Z,100106.63
2023-04-27T09:44:42.525Z,100106.66
2023-04-27T09:47:12.383Z,100124.69
2023-04-27T09:49:40.727Z,100116.19
2023-04-27T09:52:08.978Z,100117.44
2023-04-27T09:54:39.024Z,100113.84
2023-04-27T09:57:18.965Z,100109.44
2023-04-27T10:00:07.867Z,100114.50
2023-04-27T10:02:53.189Z,100119.31
2023-04-27T10:05:42.724Z,100122.16
2023-04-27T10:08:12.164Z,100120.56
2023-04-27T10:10:51.111Z,100132.38
2023-04-27T10:13:24.093Z,100151.34
2023-04-27T10:15:52.592Z,100125.50
2023-04-27T10:18:28.898Z,100136.53
2023-04-27T10:20:57.379Z,100143.25
2023-04-27T10:23:26.664Z,100139.66
2023-04-27T10:25:57.428Z,100139.06
2023-04-27T10:28:25.642Z,100139.22
2023-04-27T10:30:53.889Z,100138.66
2023-04-27T10:33:24.354Z,100141.34
2023-04-27T10:35:57.848Z,100143.34
2023-04-27T10:38:30.351Z,100142.13
2023-04-27T10:41:02.354Z,100143.22
2023-04-27T10:43:31.962Z,100141.47
2023-04-27T10:46:09.008Z,100150.84
2023-04-27T10:48:37.354Z,100136.28
2023-04-27T10:51:06.632Z,100134.69
2023-04-27T10:53:38.128Z,100145.94
2023-04-27T10:56:08.281Z,100133.16
2023-04-27T10:58:48.280Z,100145.06
2023-04-27T11:01:25.935Z,100142.00
2023-04-27T11:03:57.293Z,100145.38
2023-04-27T11:06:25.579Z,100128.63
2023-04-27T11:08:53.874Z,100139.22
2023-04-27T11:11:24.529Z,100123.81
2023-04-27T11:13:53.458Z,100120.56
2023-04-27T11:16:21.806Z,100124.84
2023-04-27T11:18:50.066Z,100107.09
2023-04-27T11:21:22.240Z,100117.09
2023-04-27T11:23:50.658Z,100134.72
2023-04-27T11:26:21.527Z,100130.91
2023-04-27T11:29:05.298Z,100120.13
2023-04-27T11:31:43.885Z,100122.38
2023-04-27T11:34:19.324Z,100125.75
2023-04-27T11:37:07.099Z,100128.44
2023-04-27T11:39:41.704Z,100117.75
2023-04-27T11:42:18.292Z,100121.59
2023-04-27T11:44:54.365Z,100157.41
2023-04-27T11:47:23.068Z,100129.22
2023-04-27T11:49:52.704Z,100120.78
2023-04-27T11:52:21.128Z,100122.03
2023-04-27T11:54:50.873Z,100134.38
2023-04-27T11:57:19.125Z,100122.03
2023-04-27T11:59:47.536Z,100140.34
2023-04-27T12:02:17.239Z,100126.88
2023-04-27T12:04:45.895Z,100128.91
2023-04-27T12:07:14.615Z,100149.22
2023-04-27T12:09:43.512Z,100138.66
2023-04-27T12:12:12.930Z,100133.72
2023-04-27T12:14:41.559Z,100145.94
2023-04-27T12:17:09.825Z,100153.59
2023-04-27T12:19:39.497Z,100139.44
2023-04-27T12:22:08.597Z,100126.41
2023-04-27T12:24:37.518Z,100144.41
2023-04-27T12:27:07.006Z,100143.06
2023-04-27T12:29:35.336Z,100138.97
2023-04-27T12:32:03.753Z,100129.66
2023-04-27T12:34:32.010Z,100151.22
2023-04-27T12:37:01.776Z,100141.94
2023-04-27T12:39:30.318Z,100141.75
2023-04-27T12:41:59.398Z,100139.59
2023-04-27T12:44:28.042Z,100142.13
2023-04-27T12:46:56.471Z,100143.50
2023-04-27T12:49:24.723Z,100155.38
2023-04-27T12:51:54.232Z,100143.03
2023-04-27T12:54:23.994Z,100146.97
2023-04-27T12:56:52.483Z,100154.38
2023-04-27T12:59:20.758Z,100158.44
2023-04-27T13:01:49.183Z,100173.00
2023-04-27T13:04:22.098Z,100158.41
2023-04-27T13:06:51.102Z,100162.03
2023-04-27T13:09:19.367Z,100162.78
2023-04-27T13:11:49.002Z,100164.94
2023-04-27T13:14:17.357Z,100171.50
2023-04-27T13:16:45.900Z,100162.56
2023-04-27T13:19:14.373Z,100151.00
2023-04-27T13:21:42.680Z,100158.41
2023-04-27T13:24:10.950Z,100163.44
2023-04-27T13:26:39.331Z,100173.59
2023-04-27T13:29:09.184Z,100171.13
2023-04-27T13:31:37.817Z,100173.81
2023-04-27T13:34:06.228Z,100167.81
2023-04-27T13:36:34.671Z,100163.88
2023-04-27T13:39:02.920Z,100166.25
2023-04-27T13:41:32.464Z,100179.66
2023-04-27T13:44:00.805Z,100172.69
2023-04-27T13:46:30.689Z,100167.53
2023-04-27T13:48:59.008Z,100173.13
2023-04-27T13:51:29.732Z,100170.84
2023-04-27T13:53:58.098Z,100183.22
2023-04-27T13:56:26.428Z,100167.56
2023-04-27T13:58:54.746Z,100173.72
2023-04-27T14:01:23.020Z,100176.66
2023-04-27T14:04:17.483Z,100173.28
2023-04-27T14:06:47.058Z,100172.22
2023-04-27T14:09:15.688Z,100171.53
2023-04-27T14:11:52.911Z,100169.53
2023-04-27T14:14:24.664Z,100174.66
2023-04-27T14:17:05.224Z,100184.84
2023-04-27T14:19:34.962Z,100185.91
2023-04-27T14:22:04.658Z,100186.31
2023-04-27T14:24:32.927Z,100182.69
2023-04-27T14:27:01.260Z,100182.69
2023-04-27T14:29:29.621Z,100194.16
2023-04-27T14:31:57.965Z,100200.97
2023-04-27T14:34:26.264Z,100192.78
2023-04-27T14:36:56.052Z,100191.44
2023-04-27T14:39:24.559Z,100199.50
2023-04-27T14:41:53.021Z,100211.38
2023-04-27T14:44:21.252Z,100196.03
2023-04-27T14:46:49.533Z,100204.22
2023-04-27T14:49:17.986Z,100201.97
2023-04-27T14:51:46.351Z,100205.56
2023-04-27T14:54:16.155Z,100204.66
2023-04-27T14:56:44.511Z,100217.78
2023-04-27T14:59:12.956Z,100208.53
2023-04-27T15:01:41.392Z,100205.91
2023-04-27T15:04:11.969Z,100199.00
2023-04-27T15:06:40.453Z,100203.59
2023-04-27T15:09:09.064Z,100207.22
2023-04-27T15:11:39.038Z,100198.53
2023-04-27T15:14:08.748Z,100195.91
2023-04-27T15:16:37.586Z,100200.03
2023-04-27T15:19:05.858Z,100209.81
2023-04-27T15:21:37.698Z,100206.41
2023-04-27T15:24:06.320Z,100217.34
2023-04-27T15:26:34.643Z,100208.97
2023-04-27T15:29:04.652Z,100219.72
2023-04-27T15:31:33.017Z,100224.00
2023-04-27T15:34:01.250Z,100217.75
2023-04-27T15:36:29.848Z,100230.38
2023-04-27T15:38:59.420Z,100227.22
2023-04-27T15:41:27.808Z,100230.31
2023-04-27T15:43:56.312Z,100237.72
2023-04-27T15:46:26.168Z,100237.50
2023-04-27T15:48:54.440Z,100242.06
2023-04-27T15:51:22.759Z,100248.50
2023-04-27T15:53:50.961Z,100240.09
2023-04-27T15:56:19.283Z,100248.06
2023-04-27T15:58:47.742Z,100243.13
2023-04-27T16:01:16.157Z,100254.38
2023-04-27T16:03:46.046Z,100251.06
2023-04-27T16:06:14.783Z,100239.03
2023-04-27T16:08:43.304Z,100253.38
2023-04-27T16:11:11.642Z,100253.47
2023-04-27T16:13:39.942Z,100260.47
2023-04-27T16:16:09.747Z,100260.03
2023-04-27T16:18:38.807Z,100264.53
2023-04-27T16:21:08.688Z,100272.31
2023-04-27T16:23:36.930Z,100276.59
2023-04-27T16:26:05.179Z,100279.94
2023-04-27T16:28:33.936Z,100274.56
2023-04-27T16:31:02.231Z,100293.84
2023-04-27T16:33:30.771Z,100279.00
2023-04-27T16:35:59.007Z,100291.00
2023-04-27T16:38:28.902Z,100285.81
2023-04-27T16:40:57.397Z,100292.91
2023-04-27T16:43:25.949Z,100296.06
2023-04-27T16:45:54.223Z,100291.78
2023-04-27T16:48:22.452Z,100296.50
2023-04-27T16:50:52.217Z,100296.81
2023-04-27T16:53:22.052Z,100304.41
2023-04-27T16:55:51.833Z,100304.06
2023-04-27T16:58:20.235Z,100314.78
2023-04-27T17:00:48.761Z,100307.03
2023-04-27T17:03:17.187Z,100309.22
2023-04-27T17:05:45.505Z,100304.13
2023-04-27T17:08:13.778Z,100311.84
2023-04-27T17:10:42.197Z,100315.78
2023-04-27T17:13:12.625Z,100310.88
2023-04-27T17:15:41.179Z,100313.34
2023-04-27T17:18:09.956Z,100316.97
2023-04-27T17:20:39.785Z,100315.00
2023-04-27T17:23:09.967Z,100326.44
2023-04-27T17:25:38.333Z,100331.31
2023-04-27T17:28:06.856Z,100330.22
2023-04-27T17:30:36.759Z,100342.00
2023-04-27T17:33:05.199Z,100348.81
2023-04-27T17:35:33.495Z,100346.53
2023-04-27T17:38:01.891Z,100349.84
2023-04-27T17:40:30.197Z,100356.03
2023-04-27T17:42:58.641Z,100356.19
2023-04-27T17:45:28.798Z,100356.09
2023-04-27T17:47:58.659Z,100355.81
2023-04-27T17:50:27.209Z,100364.66
2023-04-27T17:52:55.507Z,100381.59
2023-04-27T17:55:24.169Z,100374.16
2023-04-27T17:57:52.682Z,100380.03
2023-04-27T18:00:21.484Z,100377.44
2023-04-27T18:02:50.070Z,100382.16
2023-04-27T18:05:20.042Z,100381.16
2023-04-27T18:07:50.131Z,100388.28
2023-04-27T18:10:20.103Z,100390.56
2023-04-27T18:12:48.329Z,100394.38
2023-04-27T18:15:16.716Z,100390.78
2023-04-27T18:17:45.328Z,100394.56
2023-04-27T18:20:15.671Z,100391.28
2023-04-27T18:22:45.368Z,100401.69
2023-04-27T18:25:13.910Z,100406.38
2023-04-27T18:27:44.088Z,100401.13
2023-04-27T18:30:12.964Z,100398.44
2023-04-27T18:32:41.182Z,100401.13
2023-04-27T18:35:12.749Z,100406.97
2023-04-27T18:37:41.005Z,100396.75
2023-04-27T18:40:11.800Z,100402.72
2023-04-27T18:42:40.201Z,100411.22
2023-04-27T18:45:09.863Z,100396.56
2023-04-27T18:47:38.124Z,100418.28
2023-04-27T18:50:07.955Z,100415.31
2023-04-27T18:52:36.220Z,100411.63
2023-04-27T18:55:04.995Z,100424.53
2023-04-27T18:57:35.037Z,100422.34
2023-04-27T19:00:04.685Z,100424.91
2023-04-27T19:02:33.107Z,100428.19
2023-04-27T19:05:11.400Z,100429.66
2023-04-27T19:07:41.245Z,100430.66
2023-04-27T19:10:11.469Z,100429.09
2023-04-27T19:12:41.385Z,100438.19
2023-04-27T19:15:10.366Z,100434.81
2023-04-27T19:17:38.726Z,100434.53
2023-04-27T19:20:08.264Z,100432.44
2023-04-27T19:22:37.148Z,100440.28
2023-04-27T19:25:06.137Z,100444.53
2023-04-27T19:27:34.526Z,100439.59
2023-04-27T19:30:04.535Z,100447.50
2023-04-27T19:32:34.387Z,100448.91
2023-04-27T19:35:02.880Z,100458.78
2023-04-27T19:37:31.372Z,100463.38
2023-04-27T19:40:00.297Z,100468.31
2023-04-27T19:42:28.740Z,100467.00
2023-04-27T19:44:57.056Z,100468.47
2023-04-27T19:47:27.001Z,100481.19
2023-04-27T19:49:55.286Z,100475.84
2023-04-27T19:52:25.137Z,100490.38
2023-04-27T19:54:53.785Z,100481.34
2023-04-27T19:57:22.264Z,100481.84
2023-04-27T19:59:50.622Z,100488.66
2023-04-27T20:02:19.038Z,100487.94
2023-04-27T20:04:48.993Z,100489.53
2023-04-27T20:07:17.701Z,100487.25
2023-04-27T20:09:46.124Z,100480.09
2023-04-27T20:12:34.804Z,100481.84
2023-04-27T20:15:02.707Z,100482.50
2023-04-27T20:17:31.453Z,100483.72
2023-04-27T20:20:01.459Z,100490.09
2023-04-27T20:22:29.747Z,100489.50
2023-04-27T20:25:00.322Z,100493.09
2023-04-27T20:27:28.565Z,100501.84
2023-04-27T20:29:57.023Z,100502.44
2023-04-27T20:32:25.305Z,100504.38
2023-04-27T20:34:53.552Z,100505.41
2023-04-27T20:37:23.358Z,100504.09
2023-04-27T20:39:51.997Z,100506.47
2023-04-27T20:42:20.883Z,100517.44
2023-04-27T20:44:51.308Z,100518.66
2023-04-27T20:47:19.670Z,100511.38
2023-04-27T20:49:48.087Z,100520.97
2023-04-27T20:52:16.503Z,100519.38
2023-04-27T20:54:46.192Z,100527.09
2023-04-27T20:57:14.618Z,100525.00
2023-04-27T20:59:43.006Z,100529.78
2023-04-27T21:02:11.245Z,100526.75
2023-04-27T21:04:39.846Z,100526.19
2023-04-27T21:07:08.260Z,100533.09
2023-04-27T21:09:38.595Z,100524.75
2023-04-27T21:12:08.821Z,100519.75
2023-04-27T21:14:37.611Z,100516.38
2023-04-27T21:17:06.202Z,100526.59
2023-04-27T21:19:34.540Z,100521.63
2023-04-27T21:22:02.880Z,100529.47
2023-04-27T21:24:31.107Z,100534.25
2023-04-27T21:26:59.588Z,100532.97
2023-04-27T21:29:29.223Z,100534.31
2023-04-27T21:31:57.581Z,100539.75
2023-04-27T21:34:25.811Z,100546.72
2023-04-27T21:36:54.161Z,100536.09
2023-04-27T21:39:22.417Z,100541.38
2023-04-27T21:41:50.768Z,100538.72
2023-04-27T21:44:19.400Z,100543.00
2023-04-27T21:46:49.266Z,100535.97
2023-04-27T21:49:18.205Z,100542.69
2023-04-27T21:51:46.693Z,100541.97
2023-04-27T21:54:15.253Z,100542.47
2023-04-27T21:56:43.929Z,100537.47
2023-04-27T21:59:12.349Z,100541.31
2023-04-27T22:01:41.475Z,100546.09
2023-04-27T22:04:11.504Z,100547.03
2023-04-27T22:06:40.938Z,100542.84
2023-04-27T22:09:09.571Z,100549.31
2023-04-27T22:11:37.950Z,100549.88
2023-04-27T22:14:06.528Z,100553.22
2023-04-27T22:16:35.102Z,100555.34
2023-04-27T22:19:03.937Z,100554.84
2023-04-27T22:21:34.544Z,100555.69
2023-04-27T22:24:03.035Z,100558.66
2023-04-27T22:26:31.450Z,100569.59
2023-04-27T22:28:59.903Z,100566.56
2023-04-27T22:31:28.437Z,100557.69
2023-04-27T22:33:57.067Z,100558.38
2023-04-27T22:36:25.641Z,100549.09
2023-04-27T22:38:55.694Z,100551.81
2023-04-27T22:41:24.360Z,100557.59
2023-04-27T22:43:52.666Z,100561.03
2023-04-27T22:46:23.104Z,100564.78
2023-04-27T22:48:52.893Z,100558.56
2023-04-27T22:51:21.838Z,100546.50
2023-04-27T22:53:50.228Z,100551.34
2023-04-27T22:56:19.900Z,100554.50
2023-04-27T22:58:48.327Z,100544.38
2023-04-27T23:01:16.680Z,100546.91
2023-04-27T23:03:45.112Z,100541.00
2023-04-27T23:06:16.745Z,100539.91
2023-04-27T23:08:47.191Z,100523.47
2023-04-27T23:11:19.053Z,100528.81
2023-04-27T23:13:50.685Z,100521.31
2023-04-27T23:16:19.004Z,100518.13
2023-04-27T23:18:47.402Z,100516.03
2023-04-27T23:21:15.682Z,100513.97
2023-04-27T23:23:44.176Z,100508.63
2023-04-27T23:26:16.428Z,100504.03
2023-04-27T23:28:45.021Z,100518.94
2023-04-27T23:31:14.922Z,100510.16
2023-04-27T23:33:43.255Z,100520.53
2023-04-27T23:36:11.500Z,100515.69
2023-04-27T23:38:39.918Z,100513.31
2023-04-27T23:41:08.137Z,100535.16
2023-04-27T23:43:36.387Z,100527.97
2023-04-27T23:46:05.849Z,100523.97
2023-04-27T23:48:36.627Z,100528.81
2023-04-27T23:51:06.106Z,100521.38
2023-04-27T23:53:34.472Z,100514.44
2023-04-27T23:56:02.755Z,100519.22
2023-04-27T23:58:31.078Z,100516.34
